createdAt,value
2023-07-30T00:01:03.552Z,13.70
2023-07-30T00:03:31.019Z,12.80
2023-07-30T00:05:58.923Z,10.90
2023-07-30T00:08:26.448Z,13.80
2023-07-30T00:10:53.940Z,14.80
2023-07-30T00:13:21.370Z,14.10
2023-07-30T00:15:49.202Z,13.70
2023-07-30T00:18:17.247Z,12.80
2023-07-30T00:20:44.782Z,15.40
2023-07-30T00:23:12.278Z,13.60
2023-07-30T00:25:39.868Z,14.30
2023-07-30T00:28:07.413Z,14.40
2023-07-30T00:30:34.960Z,13.80
2023-07-30T00:33:02.500Z,14.90
2023-07-30T00:35:30.076Z,13.30
2023-07-30T00:37:57.652Z,13.30
2023-07-30T00:40:25.121Z,12.30
2023-07-30T00:42:52.553Z,14.30
2023-07-30T00:45:20.048Z,11.70
2023-07-30T00:47:47.563Z,14.00
2023-07-30T00:50:15.954Z,15.90
2023-07-30T00:54:31.402Z,15.20
2023-07-30T00:56:58.856Z,14.80
2023-07-30T00:59:26.401Z,12.40
2023-07-30T01:01:54.364Z,13.30
2023-07-30T01:04:21.885Z,11.50
2023-07-30T01:06:49.455Z,12.20
2023-07-30T01:09:17.142Z,11.50
2023-07-30T01:11:44.664Z,9.90
2023-07-30T01:14:12.170Z,9.80
2023-07-30T01:16:39.785Z,12.80
2023-07-30T01:19:07.820Z,9.50
2023-07-30T01:21:36.783Z,14.30
2023-07-30T01:24:04.900Z,12.50
2023-07-30T01:26:44.742Z,9.10
2023-07-30T01:29:16.402Z,9.00
2023-07-30T01:31:43.842Z,11.90
2023-07-30T01:34:11.607Z,12.10
2023-07-30T01:36:39.653Z,9.90
2023-07-30T01:39:09.815Z,9.30
2023-07-30T01:41:37.461Z,12.60
2023-07-30T01:44:05.237Z,10.80
2023-07-30T01:46:32.933Z,10.00
2023-07-30T01:49:00.534Z,9.40
2023-07-30T01:51:28.031Z,9.60
2023-07-30T01:53:55.605Z,8.90
2023-07-30T01:56:23.074Z,9.70
2023-07-30T01:58:50.792Z,11.10
2023-07-30T02:01:19.009Z,10.60
2023-07-30T02:03:46.590Z,9.90
2023-07-30T02:06:14.358Z,12.90
2023-07-30T02:08:41.783Z,8.90
2023-07-30T02:11:09.262Z,11.20
2023-07-30T02:13:36.972Z,8.10
2023-07-30T02:16:04.697Z,9.30
2023-07-30T02:18:32.407Z,9.80
2023-07-30T02:20:59.964Z,10.30
2023-07-30T02:23:27.962Z,12.90
2023-07-30T02:25:55.499Z,7.80
2023-07-30T02:28:23.006Z,7.80
2023-07-30T02:30:50.943Z,8.30
2023-07-30T02:33:18.595Z,10.80
2023-07-30T02:35:46.004Z,10.60
2023-07-30T02:38:13.412Z,8.50
2023-07-30T02:40:41.306Z,11.50
2023-07-30T02:43:08.882Z,9.00
2023-07-30T02:45:36.384Z,12.60
2023-07-30T02:48:04.221Z,7.10
2023-07-30T02:50:31.886Z,12.40
2023-07-30T02:52:59.367Z,10.10
2023-07-30T02:55:26.852Z,11.00
2023-07-30T02:57:54.875Z,11.50
2023-07-30T03:00:22.350Z,10.70
2023-07-30T03:02:49.956Z,11.70
2023-07-30T03:05:17.525Z,10.50
2023-07-30T03:07:45.207Z,9.60
2023-07-30T03:10:12.742Z,12.20
2023-07-30T03:12:40.257Z,9.60
2023-07-30T03:15:08.073Z,6.40
2023-07-30T03:17:35.654Z,10.10
2023-07-30T03:20:03.433Z,9.80
2023-07-30T03:22:31.172Z,10.60
2023-07-30T03:24:58.631Z,8.20
2023-07-30T03:27:26.125Z,8.10
2023-07-30T03:29:53.525Z,9.30
2023-07-30T03:32:21.519Z,15.50
2023-07-30T03:34:50.208Z,9.40
2023-07-30T03:37:17.698Z,10.10
2023-07-30T03:39:45.284Z,10.30
2023-07-30T03:42:12.790Z,5.40
2023-07-30T03:44:40.283Z,13.70
2023-07-30T03:47:07.740Z,8.80
2023-07-30T03:49:35.283Z,7.70
2023-07-30T03:52:05.472Z,8.30
2023-07-30T03:54:33.033Z,8.10
2023-07-30T03:57:00.521Z,10.40
2023-07-30T03:59:29.818Z,9.60
2023-07-30T04:01:58.196Z,8.50
2023-07-30T04:04:25.761Z,10.20
2023-07-30T04:06:53.299Z,11.50
2023-07-30T04:09:20.800Z,8.90
2023-07-30T04:11:48.260Z,10.10
2023-07-30T04:14:16.439Z,14.00
2023-07-30T04:16:48.435Z,10.00
2023-07-30T04:19:16.324Z,9.70
2023-07-30T04:21:43.799Z,6.80
2023-07-30T04:24:12.203Z,8.10
2023-07-30T04:26:39.839Z,10.60
2023-07-30T04:29:07.529Z,9.30
2023-07-30T04:31:35.300Z,7.80
2023-07-30T04:34:05.776Z,9.50
2023-07-30T04:36:33.286Z,10.00
2023-07-30T04:39:00.865Z,9.30
2023-07-30T04:41:35.248Z,10.60
2023-07-30T04:44:04.723Z,6.40
2023-07-30T04:46:33.668Z,9.20
2023-07-30T04:49:03.644Z,7.60
2023-07-30T04:51:31.262Z,7.30
2023-07-30T04:53:58.749Z,7.80
2023-07-30T04:56:27.734Z,8.40
2023-07-30T04:58:55.517Z,7.80
2023-07-30T05:01:23.141Z,5.50
2023-07-30T05:03:50.836Z,8.40
2023-07-30T05:06:18.324Z,7.90
2023-07-30T05:08:45.762Z,8.90
2023-07-30T05:11:13.526Z,6.70
2023-07-30T05:13:40.981Z,5.80
2023-07-30T05:16:08.437Z,5.50
2023-07-30T05:18:36.018Z,5.20
2023-07-30T05:21:03.791Z,6.80
2023-07-30T05:23:31.255Z,8.00
2023-07-30T05:25:58.711Z,8.60
2023-07-30T05:28:27.280Z,7.90
2023-07-30T05:30:54.942Z,8.10
2023-07-30T05:33:22.518Z,7.90
2023-07-30T05:35:49.975Z,6.50
2023-07-30T05:38:17.458Z,7.40
2023-07-30T05:40:44.871Z,5.70
2023-07-30T05:43:12.400Z,17.50
2023-07-30T05:45:39.911Z,15.20
2023-07-30T05:48:11.649Z,6.50
2023-07-30T05:50:39.144Z,9.40
2023-07-30T05:53:06.609Z,7.50
2023-07-30T05:55:34.190Z,5.80
2023-07-30T05:58:02.069Z,6.30
2023-07-30T06:00:29.611Z,5.90
2023-07-30T06:02:57.242Z,6.10
2023-07-30T06:05:24.773Z,5.90
2023-07-30T06:07:52.273Z,5.80
2023-07-30T06:10:19.685Z,5.90
2023-07-30T06:12:49.649Z,9.00
2023-07-30T06:15:17.211Z,11.30
2023-07-30T06:17:45.402Z,6.40
2023-07-30T06:20:13.139Z,6.40
2023-07-30T06:22:40.552Z,6.40
2023-07-30T06:25:08.116Z,6.70
2023-07-30T06:27:35.600Z,5.70
2023-07-30T06:30:03.399Z,5.90
2023-07-30T06:32:30.863Z,4.60
2023-07-30T06:34:58.467Z,7.30
2023-07-30T06:37:25.880Z,4.30
2023-07-30T06:39:53.318Z,4.20
2023-07-30T06:42:20.816Z,6.10
2023-07-30T06:44:48.267Z,5.80
2023-07-30T06:47:15.883Z,4.70
2023-07-30T06:49:43.355Z,4.50
2023-07-30T06:52:10.828Z,4.80
2023-07-30T06:54:40.084Z,5.10
2023-07-30T06:57:07.981Z,6.50
2023-07-30T06:59:36.082Z,6.00
2023-07-30T07:02:03.737Z,5.00
2023-07-30T07:04:31.313Z,3.80
2023-07-30T07:06:59.631Z,4.50
2023-07-30T07:09:27.560Z,6.20
2023-07-30T07:11:54.998Z,3.10
2023-07-30T07:14:22.559Z,6.40
2023-07-30T07:16:50.208Z,5.70
2023-07-30T07:19:17.916Z,3.40
2023-07-30T07:21:45.393Z,5.60
2023-07-30T07:24:12.836Z,6.50
2023-07-30T07:26:40.328Z,4.30
2023-07-30T07:29:07.832Z,4.20
2023-07-30T07:31:36.297Z,5.30
2023-07-30T07:34:04.414Z,3.70
2023-07-30T07:36:31.856Z,3.20
2023-07-30T07:38:59.535Z,4.50
2023-07-30T07:41:27.430Z,5.10
2023-07-30T07:43:55.417Z,5.70
2023-07-30T07:46:23.199Z,3.80
2023-07-30T07:48:50.735Z,6.10
2023-07-30T07:51:18.192Z,5.40
2023-07-30T07:53:45.655Z,3.60
2023-07-30T07:56:13.188Z,5.90
2023-07-30T07:58:40.780Z,2.80
2023-07-30T08:01:09.573Z,3.30
2023-07-30T08:03:37.108Z,3.80
2023-07-30T08:06:04.581Z,3.20
2023-07-30T08:08:31.995Z,3.50
2023-07-30T08:11:00.120Z,3.60
2023-07-30T08:13:27.628Z,3.50
2023-07-30T08:15:55.142Z,3.70
2023-07-30T08:18:22.675Z,7.90
2023-07-30T08:20:51.194Z,4.40
2023-07-30T08:23:18.606Z,1.60
2023-07-30T08:25:46.206Z,5.70
2023-07-30T08:28:13.651Z,3.40
2023-07-30T08:30:41.154Z,2.50
2023-07-30T08:33:08.658Z,1.80
2023-07-30T08:35:36.186Z,2.80
2023-07-30T08:38:03.642Z,1.80
2023-07-30T08:40:31.384Z,4.50
2023-07-30T08:42:59.111Z,2.20
2023-07-30T08:45:26.640Z,5.60
2023-07-30T08:47:54.384Z,3.10
2023-07-30T08:50:21.986Z,4.80
2023-07-30T08:52:50.126Z,4.40
2023-07-30T08:55:17.648Z,7.50
2023-07-30T08:57:45.123Z,5.90
2023-07-30T09:00:13.237Z,4.70
2023-07-30T09:02:48.328Z,5.80
2023-07-30T09:05:16.315Z,5.10
2023-07-30T09:07:46.710Z,5.20
2023-07-30T09:10:14.804Z,3.80
2023-07-30T09:12:42.320Z,2.70
2023-07-30T09:15:10.881Z,3.20
2023-07-30T09:17:38.786Z,2.70
2023-07-30T09:20:06.939Z,4.60
2023-07-30T09:22:37.497Z,3.00
2023-07-30T09:25:05.542Z,3.30
2023-07-30T09:27:33.264Z,1.60
2023-07-30T09:30:01.834Z,4.30
2023-07-30T09:32:34.203Z,2.70
2023-07-30T09:35:11.702Z,1.70
2023-07-30T09:37:40.390Z,3.80
2023-07-30T09:40:09.459Z,1.60
2023-07-30T09:42:40.919Z,2.70
2023-07-30T09:45:10.255Z,2.70
2023-07-30T09:47:40.991Z,2.20
2023-07-30T09:50:08.766Z,3.10
2023-07-30T09:52:36.331Z,3.10
2023-07-30T09:55:04.035Z,5.20
2023-07-30T09:57:31.513Z,3.30
2023-07-30T10:00:00.230Z,3.00
2023-07-30T10:02:32.957Z,2.10
2023-07-30T10:05:02.107Z,3.20
2023-07-30T10:07:29.600Z,3.50
2023-07-30T10:09:59.739Z,2.10
2023-07-30T10:12:31.910Z,2.10
2023-07-30T10:14:59.431Z,1.30
2023-07-30T10:17:27.089Z,4.00
2023-07-30T10:19:57.120Z,2.10
2023-07-30T10:22:27.098Z,1.70
2023-07-30T10:24:59.381Z,2.00
2023-07-30T10:27:28.580Z,1.50
2023-07-30T10:30:12.413Z,2.10
2023-07-30T10:32:43.130Z,2.70
2023-07-30T10:35:10.683Z,2.20
2023-07-30T10:37:49.095Z,1.70
2023-07-30T10:40:18.527Z,1.60
2023-07-30T10:42:46.078Z,2.60
2023-07-30T10:45:13.552Z,2.90
2023-07-30T10:47:42.271Z,2.30
2023-07-30T10:50:13.075Z,2.30
2023-07-30T10:52:40.510Z,1.60
2023-07-30T10:55:08.413Z,2.00
2023-07-30T10:57:35.977Z,1.60
2023-07-30T11:00:03.865Z,2.30
2023-07-30T11:02:31.583Z,2.90
2023-07-30T11:04:59.434Z,2.50
2023-07-30T11:07:26.923Z,2.00
2023-07-30T11:10:04.316Z,3.60
2023-07-30T11:12:31.757Z,1.50
2023-07-30T11:15:06.254Z,3.50
2023-07-30T11:17:33.703Z,4.30
2023-07-30T11:20:01.197Z,2.00
2023-07-30T11:22:36.459Z,3.80
2023-07-30T11:25:09.392Z,3.00
2023-07-30T11:27:50.003Z,2.00
2023-07-30T11:30:17.605Z,3.00
2023-07-30T11:32:46.180Z,4.20
2023-07-30T11:35:13.772Z,2.30
2023-07-30T11:37:41.445Z,1.80
2023-07-30T11:40:12.100Z,4.70
2023-07-30T11:42:40.359Z,2.40
2023-07-30T11:45:28.613Z,3.40
2023-07-30T11:48:09.263Z,1.90
2023-07-30T11:50:47.359Z,3.20
2023-07-30T11:53:15.161Z,3.90
2023-07-30T11:55:43.375Z,1.50
2023-07-30T11:58:11.375Z,1.60
2023-07-30T12:00:42.620Z,2.20
2023-07-30T12:03:15.983Z,1.80
2023-07-30T12:05:43.667Z,2.00
2023-07-30T12:08:15.185Z,2.20
2023-07-30T12:10:45.961Z,2.90
2023-07-30T12:13:17.438Z,4.00
2023-07-30T12:15:54.901Z,1.50
2023-07-30T12:18:23.398Z,2.30
2023-07-30T12:20:52.205Z,3.40
2023-07-30T12:23:20.569Z,2.20
2023-07-30T12:25:48.301Z,2.50
2023-07-30T12:28:15.927Z,2.70
2023-07-30T12:30:43.421Z,2.10
2023-07-30T12:33:10.954Z,3.40
2023-07-30T12:35:38.579Z,1.80
2023-07-30T12:38:06.051Z,3.10
2023-07-30T12:40:35.388Z,2.40
2023-07-30T12:43:04.082Z,1.80
2023-07-30T12:45:32.224Z,2.20
2023-07-30T12:47:59.895Z,2.10
2023-07-30T12:50:27.471Z,2.20
2023-07-30T12:52:54.980Z,2.40
2023-07-30T12:55:24.845Z,2.70
2023-07-30T12:57:52.286Z,1.80
2023-07-30T13:00:34.861Z,2.50
2023-07-30T13:03:07.377Z,4.40
2023-07-30T13:05:35.041Z,3.60
2023-07-30T13:08:03.966Z,4.80
2023-07-30T13:12:17.494Z,3.00
2023-07-30T13:14:44.976Z,3.60
2023-07-30T13:17:12.500Z,2.60
2023-07-30T13:19:40.043Z,5.00
2023-07-30T13:22:07.563Z,3.60
2023-07-30T13:24:37.145Z,4.80
2023-07-30T13:27:04.999Z,4.80
2023-07-30T13:29:32.882Z,3.40
2023-07-30T13:32:00.419Z,2.90
2023-07-30T13:34:27.937Z,3.60
2023-07-30T13:36:55.428Z,2.40
2023-07-30T13:39:22.961Z,2.90
2023-07-30T13:41:50.417Z,4.40
2023-07-30T13:44:17.813Z,2.80
2023-07-30T13:46:45.303Z,3.70
2023-07-30T13:49:12.817Z,5.10
2023-07-30T13:51:40.605Z,3.80
2023-07-30T13:54:09.384Z,2.60
2023-07-30T13:56:37.020Z,1.80
2023-07-30T13:59:04.455Z,2.70
2023-07-30T14:01:31.904Z,8.60
2023-07-30T14:03:59.584Z,3.80
2023-07-30T14:06:27.025Z,6.10
2023-07-30T14:08:54.500Z,6.30
2023-07-30T14:11:22.068Z,15.00
2023-07-30T14:13:49.886Z,5.00
2023-07-30T14:16:17.450Z,2.30
2023-07-30T14:18:45.252Z,8.30
2023-07-30T14:21:13.556Z,2.70
2023-07-30T14:23:41.000Z,5.90
2023-07-30T14:26:08.451Z,9.30
2023-07-30T14:28:35.924Z,16.20
2023-07-30T14:31:08.335Z,8.10
2023-07-30T14:33:36.819Z,8.70
2023-07-30T14:36:05.171Z,3.70
2023-07-30T14:38:35.445Z,5.80
2023-07-30T14:41:03.651Z,6.60
2023-07-30T14:43:31.168Z,5.80
2023-07-30T14:45:58.656Z,6.80
2023-07-30T14:48:26.248Z,7.80
2023-07-30T14:50:53.720Z,4.40
2023-07-30T14:53:21.553Z,5.10
2023-07-30T14:55:49.000Z,5.00
2023-07-30T14:58:16.901Z,4.00
2023-07-30T15:00:45.046Z,5.10
2023-07-30T15:03:13.473Z,8.20
2023-07-30T15:05:41.710Z,7.80
2023-07-30T15:08:09.154Z,4.30
2023-07-30T15:10:36.562Z,4.40
2023-07-30T15:13:04.374Z,7.80
2023-07-30T15:15:31.831Z,5.20
2023-07-30T15:17:59.290Z,6.20
2023-07-30T15:20:29.336Z,7.90
2023-07-30T15:22:57.024Z,6.20
2023-07-30T15:25:24.575Z,5.70
2023-07-30T15:27:52.133Z,4.60
2023-07-30T15:30:20.154Z,6.30
2023-07-30T15:32:48.100Z,3.50
2023-07-30T15:35:34.310Z,5.20
2023-07-30T15:38:01.754Z,2.10
2023-07-30T15:40:29.313Z,3.00
2023-07-30T15:42:56.746Z,1.90
2023-07-30T15:45:24.925Z,2.80
2023-07-30T15:47:55.156Z,2.50
2023-07-30T15:50:25.420Z,2.90
2023-07-30T15:52:55.266Z,2.90
2023-07-30T15:55:22.936Z,2.20
2023-07-30T15:57:50.417Z,1.50
2023-07-30T16:00:20.847Z,2.40
2023-07-30T16:02:49.436Z,4.10
2023-07-30T16:05:17.097Z,3.80
2023-07-30T16:07:44.762Z,2.90
2023-07-30T16:10:12.261Z,2.30
2023-07-30T16:12:45.178Z,2.60
2023-07-30T16:15:12.809Z,1.70
2023-07-30T16:17:40.305Z,1.70
2023-07-30T16:20:08.388Z,2.20
2023-07-30T16:22:38.339Z,1.90
2023-07-30T16:25:08.636Z,1.50
2023-07-30T16:27:36.842Z,1.80
2023-07-30T16:30:05.110Z,1.90
2023-07-30T16:32:32.639Z,2.50
2023-07-30T16:35:00.144Z,1.90
2023-07-30T16:37:27.568Z,1.40
2023-07-30T16:39:55.370Z,1.70
2023-07-30T16:42:22.830Z,3.00
2023-07-30T16:44:52.334Z,2.20
2023-07-30T16:47:21.066Z,3.00
2023-07-30T16:49:50.517Z,4.90
2023-07-30T16:52:18.216Z,1.70
2023-07-30T16:54:45.805Z,3.10
2023-07-30T16:57:13.289Z,2.00
2023-07-30T16:59:43.968Z,5.10
2023-07-30T17:02:11.416Z,1.60
2023-07-30T17:04:39.146Z,1.40
2023-07-30T17:07:06.673Z,1.90
2023-07-30T17:09:34.422Z,1.80
2023-07-30T17:12:01.948Z,2.90
2023-07-30T17:14:31.093Z,1.90
2023-07-30T17:16:58.696Z,1.50
2023-07-30T17:19:29.346Z,2.70
2023-07-30T17:22:00.650Z,2.30
2023-07-30T17:24:28.261Z,2.50
2023-07-30T17:26:55.783Z,1.90
2023-07-30T17:29:23.248Z,1.50
2023-07-30T17:31:50.930Z,2.40
2023-07-30T17:34:19.888Z,2.30
2023-07-30T17:36:47.354Z,3.50
2023-07-30T17:39:14.782Z,2.20
2023-07-30T17:41:42.268Z,2.40
2023-07-30T17:44:12.133Z,1.30
2023-07-30T17:46:40.156Z,2.70
2023-07-30T17:49:08.026Z,3.90
2023-07-30T17:51:35.635Z,2.30
2023-07-30T17:54:03.157Z,3.50
2023-07-30T17:56:30.719Z,2.80
2023-07-30T17:58:58.209Z,3.40
2023-07-30T18:01:26.126Z,2.40
2023-07-30T18:03:53.697Z,2.20
2023-07-30T18:06:21.126Z,2.10
2023-07-30T18:08:48.611Z,2.70
2023-07-30T18:11:16.019Z,2.70
2023-07-30T18:13:43.461Z,2.50
2023-07-30T18:16:11.057Z,3.20
2023-07-30T18:18:38.599Z,3.00
2023-07-30T18:21:06.258Z,2.80
2023-07-30T18:23:34.075Z,0.70
2023-07-30T18:26:01.741Z,3.30
2023-07-30T18:28:29.195Z,2.50
2023-07-30T18:30:56.806Z,3.10
2023-07-30T18:33:24.377Z,9.60
2023-07-30T18:35:58.585Z,1.60
2023-07-30T18:38:29.112Z,2.40
2023-07-30T18:40:56.607Z,2.10
2023-07-30T18:43:24.959Z,2.00
2023-07-30T18:45:52.438Z,1.80
2023-07-30T18:48:20.011Z,2.80
2023-07-30T18:50:49.275Z,2.20
2023-07-30T18:53:16.794Z,1.80
2023-07-30T18:55:44.382Z,2.00
2023-07-30T18:58:11.835Z,1.60
2023-07-30T19:00:39.323Z,1.60
2023-07-30T19:03:07.088Z,2.00
2023-07-30T19:05:34.813Z,2.60
2023-07-30T19:08:03.699Z,1.40
2023-07-30T19:10:31.143Z,2.30
2023-07-30T19:12:58.758Z,1.60
2023-07-30T19:15:26.214Z,4.20
2023-07-30T19:17:53.712Z,1.50
2023-07-30T19:20:21.245Z,2.40
2023-07-30T19:22:48.810Z,3.80
2023-07-30T19:25:16.288Z,2.80
2023-07-30T19:27:43.746Z,2.70
2023-07-30T19:30:13.019Z,2.80
2023-07-30T19:32:40.500Z,1.70
2023-07-30T19:35:08.423Z,3.50
2023-07-30T19:37:35.864Z,1.70
2023-07-30T19:40:07.405Z,4.90
2023-07-30T19:42:34.856Z,4.60
2023-07-30T19:45:02.443Z,5.10
2023-07-30T19:47:31.264Z,5.30
2023-07-30T19:50:02.499Z,5.20
2023-07-30T19:52:32.166Z,5.60
2023-07-30T19:54:59.614Z,5.30
2023-07-30T19:57:27.590Z,4.10
2023-07-30T19:59:55.342Z,4.80
2023-07-30T20:02:22.980Z,2.30
2023-07-30T20:04:50.568Z,4.80
2023-07-30T20:07:18.623Z,3.30
2023-07-30T20:09:46.102Z,2.50
2023-07-30T20:12:13.644Z,4.50
2023-07-30T20:14:41.173Z,3.20
2023-07-30T20:17:08.644Z,5.40
2023-07-30T20:19:36.062Z,1.30
2023-07-30T20:22:03.555Z,2.30
2023-07-30T20:24:31.346Z,5.10
2023-07-30T20:26:59.203Z,3.40
2023-07-30T20:29:26.675Z,4.60
2023-07-30T20:31:56.753Z,2.60
2023-07-30T20:34:24.258Z,4.60
2023-07-30T20:36:51.691Z,3.70
2023-07-30T20:39:19.196Z,7.00
2023-07-30T20:41:46.672Z,3.40
2023-07-30T20:44:14.147Z,7.30
2023-07-30T20:46:41.759Z,3.60
2023-07-30T20:49:09.300Z,2.50
2023-07-30T20:51:36.751Z,2.20
2023-07-30T20:54:04.358Z,3.10
2023-07-30T20:56:32.331Z,3.10
2023-07-30T20:59:00.372Z,2.50
2023-07-30T21:01:27.891Z,3.40
2023-07-30T21:03:55.461Z,2.80
2023-07-30T21:06:22.927Z,2.90
2023-07-30T21:08:50.406Z,2.50
2023-07-30T21:11:17.848Z,4.00
2023-07-30T21:13:45.290Z,7.30
2023-07-30T21:16:12.908Z,2.00
2023-07-30T21:18:40.676Z,1.80
2023-07-30T21:21:08.135Z,4.90
2023-07-30T21:23:35.744Z,3.80
2023-07-30T21:26:03.247Z,4.50
2023-07-30T21:28:30.786Z,4.80
2023-07-30T21:31:03.272Z,3.70
2023-07-30T21:33:34.583Z,8.50
2023-07-30T21:36:03.113Z,3.40
2023-07-30T21:38:31.116Z,3.80
2023-07-30T21:40:58.549Z,5.40
2023-07-30T21:43:26.093Z,5.10
2023-07-30T21:45:54.415Z,6.00
2023-07-30T21:48:22.367Z,3.60
2023-07-30T21:51:00.177Z,5.60
2023-07-30T21:53:28.865Z,6.00
2023-07-30T21:55:57.425Z,5.80
2023-07-30T21:58:25.775Z,2.90
2023-07-30T22:00:58.049Z,4.70
2023-07-30T22:03:26.511Z,4.20
2023-07-30T22:05:54.343Z,4.60
2023-07-30T22:08:21.871Z,4.70
2023-07-30T22:10:49.831Z,1.80
2023-07-30T22:13:18.428Z,1.50
2023-07-30T22:15:46.735Z,2.70
2023-07-30T22:18:14.362Z,3.10
2023-07-30T22:20:42.326Z,2.90
2023-07-30T22:23:09.814Z,5.70
2023-07-30T22:25:37.274Z,2.70
2023-07-30T22:28:09.949Z,4.40
2023-07-30T22:30:41.689Z,3.40
2023-07-30T22:33:09.744Z,4.00
2023-07-30T22:35:37.218Z,5.10
2023-07-30T22:38:04.680Z,2.90
2023-07-30T22:40:32.176Z,3.30
2023-07-30T22:43:02.055Z,5.40
2023-07-30T22:45:29.575Z,5.10
2023-07-30T22:47:57.206Z,2.50
2023-07-30T22:50:24.713Z,3.60
2023-07-30T22:52:52.316Z,4.40
2023-07-30T22:55:20.073Z,2.60
2023-07-30T22:57:47.533Z,3.60
2023-07-30T23:00:15.106Z,3.00
2023-07-30T23:02:42.683Z,6.00
2023-07-30T23:05:10.262Z,3.90
2023-07-30T23:07:37.683Z,4.40
2023-07-30T23:10:05.687Z,4.60
2023-07-30T23:12:33.130Z,3.20
2023-07-30T23:15:00.564Z,5.20
2023-07-30T23:17:28.077Z,5.50
2023-07-30T23:19:55.558Z,7.50
2023-07-30T23:22:22.992Z,6.30
2023-07-30T23:24:50.436Z,6.70
2023-07-30T23:27:17.864Z,5.80
2023-07-30T23:29:45.299Z,6.70
2023-07-30T23:32:12.779Z,5.70
2023-07-30T23:34:40.244Z,6.10
2023-07-30T23:37:07.824Z,4.90
2023-07-30T23:39:35.221Z,3.80
2023-07-30T23:42:02.741Z,4.60
2023-07-30T23:44:30.206Z,3.80
2023-07-30T23:46:57.662Z,7.40
2023-07-30T23:49:25.096Z,2.20
2023-07-30T23:51:52.587Z,3.30
2023-07-30T23:54:20.061Z,7.60
2023-07-30T23:56:47.666Z,3.50
2023-07-30T23:59:15.291Z,3.90
